Time;durP1;ratioP1;P1;durP2;ratioP2;P2;SDS_P1;SDS_P2;PMS_P1;PMS_P2;Temp;Humidity;BMP_temperature;BMP_pressure;BME280_temperature;BME280_humidity;BME280_pressure;Samples;Min_cycle;Max_cycle;Signal;HPM_P1;HPM_P2
2022/02/02 00:00:23;;;;;;;0.40;0.20;;;5.20;99.90;;;;;;5030831;28;20415;-73
2022/02/02 00:02:51;;;;;;;0.40;0.20;;;5.20;99.90;;;;;;5031512;28;20441;-73
2022/02/02 00:08:10;;;;;;;0.40;0.20;;;5.20;99.90;;;;;;5031064;28;20386;-71
2022/02/02 00:13:15;;;;;;;0.40;0.20;;;5.30;99.90;;;;;;5031224;28;20877;-73
2022/02/02 00:16:04;;;;;;;0.40;0.20;;;5.30;99.90;;;;;;5030577;28;20379;-74
2022/02/02 00:21:59;;;;;;;0.40;0.20;;;5.20;99.90;;;;;;5030559;28;20375;-76
2022/02/02 00:24:08;;;;;;;0.40;0.20;;;5.40;99.90;;;;;;5022399;28;20398;-75
2022/02/02 00:26:39;;;;;;;0.40;0.20;;;5.30;99.90;;;;;;5030201;28;20702;-75
2022/02/02 00:29:14;;;;;;;0.40;0.20;;;5.40;99.90;;;;;;5031025;28;20401;-76
2022/02/02 00:31:47;;;;;;;0.40;0.20;;;5.30;99.90;;;;;;5030227;28;20383;-75
2022/02/02 00:34:17;;;;;;;0.40;0.20;;;5.40;99.90;;;;;;5030915;28;20720;-77
2022/02/02 00:36:50;;;;;;;0.40;0.20;;;5.40;99.90;;;;;;5011999;28;21014;-77
2022/02/02 00:39:16;;;;;;;0.40;0.30;;;5.40;99.90;;;;;;5030869;28;20383;-78
2022/02/02 00:41:42;;;;;;;0.40;0.20;;;5.50;99.90;;;;;;5012223;28;20441;-73
2022/02/02 00:44:09;;;;;;;0.40;0.20;;;5.60;99.90;;;;;;5030766;28;20383;-77
2022/02/02 00:46:35;;;;;;;0.40;0.20;;;5.50;99.90;;;;;;5029725;28;20952;-77
2022/02/02 00:49:04;;;;;;;0.40;0.30;;;5.60;99.90;;;;;;5030716;28;20451;-75
2022/02/02 00:51:53;;;;;;;0.40;0.20;;;5.60;99.90;;;;;;5030639;28;20537;-78
2022/02/02 00:54:22;;;;;;;0.40;0.40;;;5.60;99.90;;;;;;5030439;28;20383;-77
2022/02/02 00:56:49;;;;;;;0.40;0.30;;;5.70;99.90;;;;;;5011897;28;20418;-76
2022/02/02 00:59:15;;;;;;;0.40;0.30;;;5.70;99.90;;;;;;5012757;28;20505;-75
2022/02/02 01:01:41;;;;;;;0.40;0.30;;;5.70;99.90;;;;;;5028426;28;20461;-74
2022/02/02 01:04:07;;;;;;;0.40;0.20;;;5.70;99.90;;;;;;5030069;28;20859;-74
2022/02/02 01:06:37;;;;;;;0.40;0.20;;;5.70;99.90;;;;;;5030205;28;20380;-71
2022/02/02 01:09:17;;;;;;;0.40;0.20;;;5.70;99.90;;;;;;5029440;28;20379;-70
2022/02/02 01:12:03;;;;;;;0.40;0.30;;;5.60;99.90;;;;;;5030249;28;20391;-70
2022/02/02 01:28:07;;;;;;;0.40;0.30;;;5.70;99.90;;;;;;4977686;28;20983;-73
2022/02/02 01:30:32;;;;;;;2.30;0.90;;;5.70;99.90;;;;;;5034689;28;20467;-72
2022/02/02 01:32:58;;;;;;;0.40;0.20;;;5.70;99.90;;;;;;5033987;28;20384;-74
2022/02/02 01:35:25;;;;;;;0.40;0.20;;;5.70;99.90;;;;;;5033871;28;20843;-73
2022/02/02 01:37:51;;;;;;;0.40;0.20;;;5.70;99.90;;;;;;5034414;28;20426;-75
2022/02/02 01:40:26;;;;;;;0.40;0.20;;;5.70;99.90;;;;;;5033381;28;20852;-75
2022/02/02 01:43:02;;;;;;;0.40;0.20;;;5.70;99.90;;;;;;5016340;28;20453;-74
2022/02/02 01:45:36;;;;;;;0.40;0.20;;;5.80;99.90;;;;;;5033229;28;20391;-74
2022/02/02 01:51:00;;;;;;;0.40;0.20;;;5.80;99.90;;;;;;5033625;28;20661;-73
2022/02/02 01:55:58;;;;;;;0.40;0.20;;;5.90;99.90;;;;;;5033733;28;20875;-73
2022/02/02 02:01:09;;;;;;;0.40;0.27;;;6.10;99.90;;;;;;5033791;28;20482;-71
2022/02/02 02:03:35;;;;;;;0.40;0.20;;;6.00;99.90;;;;;;5032984;28;20398;-71
2022/02/02 02:06:01;;;;;;;0.40;0.20;;;6.00;99.90;;;;;;5033495;28;20389;-73
2022/02/02 02:08:27;;;;;;;0.40;0.20;;;6.10;99.90;;;;;;5032671;28;20466;-73
2022/02/02 02:10:53;;;;;;;0.40;0.20;;;6.10;99.90;;;;;;5033705;28;20383;-73
2022/02/02 02:13:51;;;;;;;0.40;0.20;;;6.10;99.90;;;;;;5033550;28;20429;-74
2022/02/02 02:16:11;;;;;;;0.40;0.20;;;6.10;99.90;;;;;;5032876;28;20415;-74
2022/02/02 02:18:37;;;;;;;0.40;0.20;;;6.10;99.90;;;;;;5032718;28;20437;-74
2022/02/02 02:21:11;;;;;;;0.40;0.30;;;6.10;99.90;;;;;;5033467;28;20407;-75
2022/02/02 02:23:37;;;;;;;0.40;0.25;;;6.20;99.90;;;;;;5032371;28;20399;-73
2022/02/02 02:26:02;;;;;;;0.40;0.20;;;6.20;99.90;;;;;;5033325;28;20387;-72
2022/02/02 02:31:20;;;;;;;0.40;0.30;;;6.20;99.90;;;;;;5033179;28;20926;-74
2022/02/02 02:39:31;;;;;;;0.40;0.20;;;6.20;99.90;;;;;;5032200;28;20379;-72
2022/02/02 02:55:58;;;;;;;0.40;0.30;;;6.20;99.90;;;;;;5032710;28;20437;-76
2022/02/02 02:58:45;;;;;;;0.40;0.28;;;6.20;99.90;;;;;;5032441;28;20391;-75
2022/02/02 04:05:21;;;;;;;0.40;0.20;;;6.40;99.90;;;;;;5011292;28;20419;-72
2022/02/02 04:07:48;;;;;;;0.40;0.20;;;6.20;99.90;;;;;;5010316;28;20403;-73
2022/02/02 04:10:14;;;;;;;0.40;0.20;;;6.20;99.90;;;;;;5011711;28;20427;-73
2022/02/02 04:16:14;;;;;;;0.40;0.20;;;6.30;99.90;;;;;;5011492;28;20480;-73
2022/02/02 04:59:06;;;;;;;0.40;0.25;;;6.50;99.90;;;;;;5030998;28;20391;-73
2022/02/02 05:02:31;;;;;;;0.40;0.20;;;6.60;99.90;;;;;;5031011;28;20391;-72
2022/02/02 05:08:05;;;;;;;0.40;0.20;;;6.60;99.90;;;;;;5030878;28;20471;-74
2022/02/02 05:52:45;;;;;;;0.40;0.20;;;6.50;99.90;;;;;;5029730;28;20437;-77
2022/02/02 05:55:12;;;;;;;0.40;0.20;;;6.50;99.90;;;;;;5030214;28;20461;-78
2022/02/02 05:57:41;;;;;;;0.40;0.20;;;6.60;99.90;;;;;;5029889;28;20411;-78
2022/02/02 06:00:07;;;;;;;0.40;0.20;;;6.50;99.90;;;;;;5030267;28;20728;-77
2022/02/02 06:02:38;;;;;;;0.40;0.30;;;6.70;99.90;;;;;;5030079;28;20387;-76
2022/02/02 06:05:07;;;;;;;0.40;0.20;;;6.60;99.90;;;;;;5012957;28;20478;-78
2022/02/02 06:07:35;;;;;;;0.40;0.20;;;6.70;99.90;;;;;;5011391;28;20410;-76
2022/02/02 06:10:05;;;;;;;0.40;0.20;;;6.60;99.90;;;;;;5026538;28;20766;-76
2022/02/02 06:12:32;;;;;;;0.40;0.20;;;6.70;99.90;;;;;;5017858;28;20385;-77
2022/02/02 06:14:59;;;;;;;0.40;0.20;;;6.70;99.90;;;;;;5013244;28;20393;-77
2022/02/02 06:17:28;;;;;;;0.60;0.50;;;6.70;99.90;;;;;;5014035;28;20533;-77
2022/02/02 06:19:54;;;;;;;0.40;0.20;;;6.70;99.90;;;;;;5013808;28;20821;-76
2022/02/02 06:22:22;;;;;;;0.40;0.20;;;6.80;99.90;;;;;;5019278;28;20727;-77
2022/02/02 06:24:56;;;;;;;0.40;0.20;;;6.80;99.90;;;;;;5034088;28;20394;-77
2022/02/02 06:27:25;;;;;;;0.40;0.20;;;6.80;99.90;;;;;;5033576;28;20415;-75
2022/02/02 06:30:05;;;;;;;1.20;0.50;;;6.90;99.90;;;;;;5025377;28;20560;-76
2022/02/02 06:32:37;;;;;;;0.40;0.20;;;6.80;99.90;;;;;;5018312;28;20390;-76
2022/02/02 06:35:05;;;;;;;0.40;0.30;;;6.80;99.90;;;;;;5032691;28;20727;-76
2022/02/02 06:37:31;;;;;;;0.40;0.20;;;6.80;99.90;;;;;;5029065;28;20427;-76
2022/02/02 06:39:57;;;;;;;0.40;0.40;;;6.80;99.90;;;;;;5020620;28;20470;-76
2022/02/02 06:42:23;;;;;;;0.40;0.20;;;6.80;99.90;;;;;;5026747;28;20525;-73
2022/02/02 06:44:50;;;;;;;0.40;0.40;;;6.90;99.90;;;;;;5031084;28;20387;-73
2022/02/02 06:47:17;;;;;;;0.40;0.20;;;6.80;99.90;;;;;;5027438;28;20406;-76
2022/02/02 06:49:45;;;;;;;0.40;0.40;;;6.80;99.90;;;;;;5030396;28;20391;-75
2022/02/02 06:52:18;;;;;;;0.40;0.20;;;6.80;99.90;;;;;;5032476;28;20383;-76
2022/02/02 06:55:08;;;;;;;0.40;0.30;;;6.80;99.90;;;;;;5031839;28;20384;-76
2022/02/02 06:57:51;;;;;;;0.40;0.20;;;6.80;99.90;;;;;;5014511;28;20422;-75
2022/02/02 07:03:52;;;;;;;0.40;0.40;;;6.80;99.90;;;;;;4952368;29;20405;-76
2022/02/02 07:06:55;;;;;;;0.40;0.20;;;6.90;99.90;;;;;;5032920;28;20402;-76
2022/02/02 07:09:54;;;;;;;0.40;0.20;;;6.80;99.90;;;;;;5032878;28;20414;-77
2022/02/02 07:12:33;;;;;;;0.40;0.20;;;6.80;99.90;;;;;;5032864;28;20395;-78
2022/02/02 07:15:19;;;;;;;0.40;0.20;;;6.80;99.90;;;;;;5031793;28;20891;-77
2022/02/02 07:18:08;;;;;;;0.40;0.20;;;6.80;99.90;;;;;;5032051;28;20438;-77
2022/02/02 07:20:48;;;;;;;0.40;0.20;;;6.90;99.90;;;;;;5032298;28;20399;-77
2022/02/02 07:23:50;;;;;;;0.40;0.20;;;7.00;99.90;;;;;;5032959;28;20779;-78
2022/02/02 07:34:41;;;;;;;0.40;0.20;;;7.10;99.90;;;;;;5001325;28;20406;-77
2022/02/02 07:37:15;;;;;;;0.40;0.20;;;7.00;99.90;;;;;;5031289;28;20434;-77
2022/02/02 07:39:44;;;;;;;0.40;0.20;;;7.00;99.90;;;;;;5032423;28;20440;-77
2022/02/02 07:42:11;;;;;;;0.40;0.20;;;7.10;99.90;;;;;;5032241;28;20408;-77
2022/02/02 07:44:39;;;;;;;0.40;0.25;;;7.00;99.90;;;;;;5032225;28;20379;-76
2022/02/02 07:47:10;;;;;;;0.40;0.20;;;7.10;99.90;;;;;;5031376;28;20403;-76
2022/02/02 07:49:40;;;;;;;0.40;0.20;;;7.10;99.90;;;;;;5032015;28;20394;-77
2022/02/02 07:52:08;;;;;;;0.40;0.20;;;7.10;99.90;;;;;;5031514;28;20423;-76
2022/02/02 07:54:38;;;;;;;0.40;0.20;;;7.10;99.90;;;;;;5031951;28;20379;-75
2022/02/02 07:57:14;;;;;;;0.40;0.20;;;7.10;99.90;;;;;;5031426;28;20560;-75
2022/02/02 07:59:54;;;;;;;0.40;0.20;;;7.20;99.90;;;;;;5031796;28;20387;-75
2022/02/02 08:02:27;;;;;;;0.40;0.20;;;7.10;99.90;;;;;;5030128;28;20466;-75
2022/02/02 08:04:52;;;;;;;0.40;0.20;;;7.20;99.90;;;;;;5032059;28;20382;-74
2022/02/02 08:07:25;;;;;;;0.40;0.30;;;7.30;99.90;;;;;;5031095;28;20938;-75
2022/02/02 08:10:05;;;;;;;0.40;0.20;;;7.30;99.90;;;;;;5031758;28;20828;-75
2022/02/02 08:12:41;;;;;;;0.40;0.20;;;7.30;99.90;;;;;;5032242;28;20731;-74
2022/02/02 08:15:08;;;;;;;0.50;0.40;;;7.30;99.90;;;;;;5031106;28;20398;-75
2022/02/02 08:17:33;;;;;;;0.40;0.20;;;7.40;99.90;;;;;;5030849;28;20438;-75
2022/02/02 08:19:59;;;;;;;0.40;0.30;;;7.40;99.90;;;;;;5031873;28;20379;-75
2022/02/02 08:22:29;;;;;;;0.40;0.20;;;7.40;99.90;;;;;;5031201;28;20474;-76
2022/02/02 08:24:55;;;;;;;0.40;0.20;;;7.30;99.90;;;;;;5031294;28;20390;-76
2022/02/02 08:27:22;;;;;;;0.40;0.20;;;7.30;99.90;;;;;;5030784;28;20419;-76
2022/02/02 08:29:48;;;;;;;0.40;0.20;;;7.40;99.90;;;;;;5031313;28;20393;-77
2022/02/02 08:32:14;;;;;;;0.40;0.20;;;7.30;99.90;;;;;;5030686;28;20391;-77
2022/02/02 08:34:46;;;;;;;0.40;0.40;;;7.40;99.90;;;;;;5031061;28;20429;-77
2022/02/02 08:37:12;;;;;;;0.40;0.20;;;7.30;99.90;;;;;;5030878;28;20431;-77
2022/02/02 08:39:54;;;;;;;0.40;0.20;;;7.40;99.90;;;;;;5030498;28;20383;-75
2022/02/02 08:42:20;;;;;;;0.40;0.20;;;7.40;99.90;;;;;;5030914;28;20383;-74
2022/02/02 08:44:52;;;;;;;0.40;0.20;;;7.40;99.90;;;;;;5030595;28;20430;-74
2022/02/02 08:47:22;;;;;;;0.40;0.20;;;7.50;99.90;;;;;;5031432;28;20387;-74
2022/02/02 08:49:54;;;;;;;0.40;0.30;;;7.50;99.90;;;;;;5030731;28;20444;-73
2022/02/02 08:52:30;;;;;;;1.70;0.80;;;7.50;99.90;;;;;;5031321;28;20410;-74
2022/02/02 08:55:02;;;;;;;0.40;0.20;;;7.50;99.90;;;;;;5029819;28;20404;-74
2022/02/02 08:57:45;;;;;;;0.40;0.20;;;7.50;99.90;;;;;;5030699;28;20407;-74
2022/02/02 09:00:14;;;;;;;0.40;0.30;;;7.60;99.90;;;;;;5030977;28;20416;-75
2022/02/02 09:02:53;;;;;;;0.40;0.20;;;7.60;99.90;;;;;;5030194;28;20379;-76
2022/02/02 09:05:25;;;;;;;0.40;0.20;;;7.50;99.90;;;;;;5031089;28;20513;-76
2022/02/02 09:07:51;;;;;;;0.40;0.20;;;7.50;99.90;;;;;;5029961;28;21324;-76
2022/02/02 09:19:59;;;;;;;0.40;0.40;;;7.40;99.90;;;;;;5030556;28;20410;-77
2022/02/02 09:24:22;;;;;;;0.40;0.20;;;7.60;99.90;;;;;;5030027;28;20383;-77
2022/02/02 09:34:52;;;;;;;0.40;0.20;;;7.60;99.90;;;;;;5029914;28;20466;-77
2022/02/02 09:37:19;;;;;;;0.40;0.20;;;7.60;99.90;;;;;;5029009;28;20514;-78
2022/02/02 09:39:53;;;;;;;1.00;0.90;;;7.60;99.90;;;;;;5030484;28;20391;-78
2022/02/02 09:42:21;;;;;;;0.40;0.20;;;7.60;99.90;;;;;;5030853;28;20379;-78
2022/02/02 09:44:52;;;;;;;0.40;0.20;;;7.60;99.90;;;;;;5030639;28;20391;-77
2022/02/02 09:47:24;;;;;;;0.40;0.23;;;7.60;99.90;;;;;;5030228;28;20474;-78
2022/02/02 09:50:11;;;;;;;0.40;0.20;;;7.70;99.90;;;;;;5033889;28;20444;-77
2022/02/02 09:52:42;;;;;;;0.40;0.20;;;7.60;99.90;;;;;;5034413;28;20418;-77
2022/02/02 09:55:32;;;;;;;0.40;0.20;;;7.60;99.90;;;;;;5033572;28;20469;-78
2022/02/02 10:03:20;;;;;;;0.40;0.20;;;7.60;99.90;;;;;;5034148;28;20485;-77
2022/02/02 10:06:45;;;;;;;0.77;0.77;;;7.60;99.90;;;;;;5034180;28;20391;-78
2022/02/02 10:09:46;;;;;;;0.40;0.20;;;7.60;99.90;;;;;;5033378;28;20400;-78
2022/02/02 10:15:26;;;;;;;1.00;1.00;;;7.70;99.90;;;;;;5034120;28;20462;-75
2022/02/02 10:18:00;;;;;;;0.40;0.20;;;7.70;99.90;;;;;;5034296;28;20496;-78
2022/02/02 10:20:28;;;;;;;0.40;0.20;;;7.70;99.90;;;;;;5033387;28;20437;-79
2022/02/02 10:22:59;;;;;;;0.40;0.20;;;7.60;99.90;;;;;;5033743;28;20383;-76
2022/02/02 10:25:24;;;;;;;0.40;0.20;;;7.60;99.90;;;;;;5032711;28;20375;-75
2022/02/02 10:27:50;;;;;;;0.40;0.20;;;7.60;99.90;;;;;;5033497;28;20402;-76
2022/02/02 10:30:19;;;;;;;0.40;0.20;;;7.60;99.90;;;;;;5032854;28;20379;-76
2022/02/02 10:32:48;;;;;;;0.40;0.20;;;7.70;99.90;;;;;;5033877;28;20409;-76
2022/02/02 10:35:38;;;;;;;0.40;0.20;;;7.70;99.90;;;;;;5033694;28;20390;-76
2022/02/02 10:38:10;;;;;;;0.40;0.20;;;7.60;99.90;;;;;;5032942;28;20423;-76
2022/02/02 10:43:59;;;;;;;0.40;0.20;;;7.70;99.90;;;;;;5032799;28;20533;-76
2022/02/02 10:49:22;;;;;;;0.50;0.50;;;7.70;99.90;;;;;;5033778;28;20402;-76
2022/02/02 10:52:06;;;;;;;0.40;0.20;;;7.70;99.90;;;;;;5032693;28;20387;-77
2022/02/02 10:57:31;;;;;;;0.50;0.50;;;7.60;99.90;;;;;;5033074;28;20414;-77
2022/02/02 11:00:10;;;;;;;0.40;0.30;;;7.70;99.90;;;;;;5032666;28;20391;-76
2022/02/02 11:08:05;;;;;;;0.40;0.20;;;7.80;99.90;;;;;;5032998;28;20437;-77
2022/02/02 11:10:33;;;;;;;0.40;0.20;;;7.80;99.90;;;;;;5032918;28;20448;-77
2022/02/02 11:13:01;;;;;;;0.40;0.20;;;7.80;99.90;;;;;;5015089;28;20417;-77
2022/02/02 11:15:48;;;;;;;0.40;0.20;;;7.80;99.90;;;;;;5032940;28;20375;-76
2022/02/02 11:18:21;;;;;;;2.10;0.90;;;7.90;99.90;;;;;;5032540;28;20411;-76
2022/02/02 11:20:48;;;;;;;0.40;0.20;;;7.70;99.90;;;;;;5031786;28;20418;-76
2022/02/02 11:23:14;;;;;;;0.40;0.20;;;7.80;99.90;;;;;;5032766;28;20380;-77
2022/02/02 11:25:47;;;;;;;0.40;0.20;;;7.80;99.90;;;;;;5032619;28;20391;-77
2022/02/02 11:28:27;;;;;;;0.40;0.30;;;8.00;99.90;;;;;;5033008;28;20445;-77
2022/02/02 11:31:09;;;;;;;0.40;0.20;;;8.10;99.90;;;;;;5031517;28;20391;-76
2022/02/02 11:33:46;;;;;;;0.40;0.20;;;8.00;99.90;;;;;;5032733;28;20803;-76
2022/02/02 11:36:31;;;;;;;0.40;0.30;;;8.00;99.90;;;;;;5031765;28;20406;-78
2022/02/02 11:38:58;;;;;;;0.40;0.20;;;8.00;99.90;;;;;;5031664;28;20395;-76
2022/02/02 11:49:57;;;;;;;0.40;0.20;;;8.20;99.90;;;;;;5032350;28;20418;-77
2022/02/02 11:52:50;;;;;;;0.40;0.20;;;8.30;99.90;;;;;;5032139;28;20467;-77
2022/02/02 11:55:16;;;;;;;0.40;0.20;;;8.40;99.90;;;;;;5030600;28;20859;-77
2022/02/02 11:58:04;;;;;;;0.40;0.20;;;8.40;99.90;;;;;;5032390;28;20413;-77
2022/02/02 12:00:43;;;;;;;0.70;0.70;;;8.30;99.90;;;;;;5032178;28;20379;-78
2022/02/02 12:08:27;;;;;;;0.40;0.20;;;8.50;99.90;;;;;;5031429;28;20426;-77
2022/02/02 12:28:07;;;;;;;0.40;0.20;;;8.60;99.90;;;;;;5030864;28;20498;-77
2022/02/02 12:49:43;;;;;;;0.40;0.20;;;8.60;99.90;;;;;;5031246;28;20418;-77
2022/02/02 12:57:39;;;;;;;0.40;0.30;;;8.70;99.90;;;;;;5030974;28;20423;-78
2022/02/02 13:00:10;;;;;;;0.40;0.20;;;8.70;99.90;;;;;;5031133;28;20414;-78
2022/02/02 13:02:41;;;;;;;0.40;0.20;;;8.70;99.90;;;;;;5030436;28;20379;-76
2022/02/02 13:05:09;;;;;;;0.40;0.20;;;8.70;99.90;;;;;;5031140;28;20739;-77
2022/02/02 13:07:37;;;;;;;0.40;0.20;;;8.70;99.90;;;;;;5031040;28;20391;-77
2022/02/02 13:10:08;;;;;;;0.40;0.20;;;8.70;99.90;;;;;;5030369;28;20441;-78
2022/02/02 13:12:46;;;;;;;0.40;0.20;;;8.60;99.90;;;;;;5030740;28;20425;-77
2022/02/02 13:18:00;;;;;;;0.40;0.28;;;8.70;99.90;;;;;;5030268;28;20435;-77
2022/02/02 13:21:06;;;;;;;0.40;0.20;;;8.60;99.90;;;;;;5030861;28;20398;-78
2022/02/02 13:23:59;;;;;;;1.40;1.00;;;8.60;99.90;;;;;;5028275;28;20395;-77
2022/02/02 13:26:58;;;;;;;0.40;0.20;;;8.60;99.90;;;;;;5030634;28;20413;-77
2022/02/02 13:29:40;;;;;;;0.40;0.20;;;8.50;99.90;;;;;;5030682;28;20387;-77
2022/02/02 13:32:25;;;;;;;0.40;0.30;;;8.60;99.90;;;;;;5012300;28;20982;-78
2022/02/02 13:35:10;;;;;;;0.40;0.20;;;8.60;99.90;;;;;;5030563;28;20383;-77
2022/02/02 13:45:55;;;;;;;0.55;0.35;;;8.60;99.90;;;;;;5030640;28;20392;-77
2022/02/02 13:54:05;;;;;;;0.40;0.20;;;8.60;99.90;;;;;;5028629;28;20478;-77
2022/02/02 14:31:36;;;;;;;0.50;0.50;;;8.40;99.90;;;;;;5029203;28;20398;-71
2022/02/02 14:34:03;;;;;;;0.40;0.20;;;8.40;99.90;;;;;;5030598;28;20782;-70
2022/02/02 14:36:34;;;;;;;0.40;0.30;;;8.50;99.90;;;;;;5032587;28;20419;-70
2022/02/02 14:41:44;;;;;;;0.40;0.20;;;8.40;99.90;;;;;;5032765;28;20415;-71
2022/02/02 14:44:28;;;;;;;0.40;0.20;;;8.40;99.90;;;;;;5015828;28;20418;-71
2022/02/02 14:47:06;;;;;;;0.40;0.30;;;8.50;99.90;;;;;;5015468;28;20403;-70
2022/02/02 14:55:09;;;;;;;0.40;0.20;;;8.50;99.90;;;;;;5032543;28;20390;-70
2022/02/02 15:25:47;;;;;;;0.40;0.20;;;8.60;99.90;;;;;;5031682;28;20383;-71
2022/02/02 15:27:50;;;;;;;0.40;0.30;;;8.60;99.90;;;;;;5032042;28;20410;-71
2022/02/02 15:32:49;;;;;;;0.40;0.20;;;8.60;99.90;;;;;;5032781;28;20524;-72
2022/02/02 15:35:15;;;;;;;0.40;0.20;;;8.70;99.90;;;;;;5032219;28;20409;-72
2022/02/02 15:40:27;;;;;;;0.40;0.20;;;8.70;99.90;;;;;;5032509;28;20390;-73
2022/02/02 16:00:25;;;;;;;0.40;0.20;;;8.70;99.90;;;;;;5031130;28;20453;-74
2022/02/02 16:02:15;;;;;;;0.65;0.63;;;8.70;99.90;;;;;;5025415;28;20398;-74
2022/02/02 16:04:41;;;;;;;0.40;0.40;;;8.80;99.90;;;;;;5014482;28;20790;-75
2022/02/02 16:07:09;;;;;;;0.40;0.20;;;8.80;99.90;;;;;;5031421;28;20399;-75
2022/02/02 16:12:28;;;;;;;0.40;0.20;;;8.80;99.90;;;;;;5031660;28;20494;-76
2022/02/02 16:36:15;;;;;;;0.40;0.20;;;8.80;99.90;;;;;;5029172;28;20391;-76
2022/02/02 16:38:55;;;;;;;0.90;0.90;;;8.80;99.90;;;;;;4981064;28;20410;-76
2022/02/02 16:44:05;;;;;;;0.40;0.20;;;8.80;99.90;;;;;;4990448;28;20392;-73
2022/02/02 16:46:31;;;;;;;0.40;0.20;;;8.80;99.90;;;;;;4991220;28;20885;-73
2022/02/02 16:48:56;;;;;;;0.90;0.90;;;8.90;99.90;;;;;;4994644;28;20410;-73
2022/02/02 16:51:22;;;;;;;0.40;0.30;;;8.90;99.90;;;;;;4985567;28;20378;-74
2022/02/02 16:53:50;;;;;;;0.40;0.20;;;8.80;99.90;;;;;;4985220;28;20398;-78
2022/02/02 16:56:29;;;;;;;0.40;0.20;;;8.80;99.90;;;;;;4982827;28;20395;-77
2022/02/02 17:31:43;;;;;;;0.50;0.50;;;8.50;99.90;;;;;;4981076;28;20404;-79
2022/02/02 17:34:25;;;;;;;0.40;0.20;;;8.50;99.90;;;;;;4978760;28;20437;-79
2022/02/02 17:37:05;;;;;;;0.40;0.20;;;8.60;99.90;;;;;;4987874;28;20420;-79
2022/02/02 17:39:42;;;;;;;0.40;0.20;;;8.60;99.90;;;;;;5030851;28;20399;-79
2022/02/02 17:44:56;;;;;;;0.40;0.20;;;8.60;99.90;;;;;;5038838;28;20383;-78
2022/02/02 18:12:43;;;;;;;0.40;0.40;;;8.80;99.90;;;;;;5043951;28;20429;-73
2022/02/02 18:20:50;;;;;;;0.40;0.20;;;8.80;99.90;;;;;;5005605;28;20410;-73
2022/02/02 18:23:57;;;;;;;0.40;0.20;;;8.80;99.90;;;;;;5017207;28;20448;-73
2022/02/02 18:42:20;;;;;;;0.40;0.20;;;8.80;99.90;;;;;;5038406;28;20388;-73
2022/02/02 19:02:19;;;;;;;0.40;0.30;;;8.80;99.90;;;;;;5039728;28;20964;-72
2022/02/02 19:40:23;;;;;;;0.40;0.20;;;8.80;99.90;;;;;;5041401;28;20854;-74
2022/02/02 19:56:50;;;;;;;0.40;0.20;;;8.90;99.90;;;;;;5035398;28;20418;-71
2022/02/02 20:02:39;;;;;;;0.40;0.20;;;8.90;99.90;;;;;;5031115;28;20480;-72
2022/02/02 20:13:42;;;;;;;0.40;0.30;;;8.80;99.90;;;;;;5017748;28;20392;-73
2022/02/02 20:16:08;;;;;;;0.50;0.50;;;8.70;99.90;;;;;;5040224;28;20393;-73
2022/02/02 20:18:41;;;;;;;0.40;0.20;;;8.80;99.90;;;;;;5012933;28;20421;-73
2022/02/02 20:21:09;;;;;;;0.40;0.20;;;8.80;99.90;;;;;;5033178;28;21522;-73
2022/02/02 20:23:48;;;;;;;0.40;0.20;;;8.90;99.90;;;;;;5037807;28;20406;-73
2022/02/02 20:26:17;;;;;;;0.40;0.40;;;8.90;99.90;;;;;;5024672;28;20397;-73
2022/02/02 20:28:43;;;;;;;0.40;0.20;;;8.80;99.90;;;;;;5031331;28;20383;-73
2022/02/02 20:31:09;;;;;;;0.40;0.20;;;8.90;99.90;;;;;;5041985;28;20467;-74
2022/02/02 20:33:35;;;;;;;0.40;0.20;;;8.80;99.90;;;;;;5028815;28;21111;-74
2022/02/02 20:36:01;;;;;;;0.40;0.30;;;8.80;99.90;;;;;;5019210;28;20410;-73
2022/02/02 20:38:27;;;;;;;0.40;0.20;;;8.70;99.90;;;;;;5035869;28;20504;-74
2022/02/02 20:40:53;;;;;;;0.40;0.20;;;8.80;99.90;;;;;;5033355;28;20387;-74
2022/02/02 20:43:33;;;;;;;0.40;0.20;;;8.80;99.90;;;;;;5037448;28;20470;-75
2022/02/02 21:08:18;;;;;;;0.40;0.20;;;8.50;99.90;;;;;;5036469;28;20395;-74
2022/02/02 21:10:27;;;;;;;0.40;0.20;;;8.30;99.90;;;;;;5034303;28;20387;-74
2022/02/02 21:15:39;;;;;;;0.40;0.20;;;8.10;99.90;;;;;;5037465;28;20735;-75
2022/02/02 21:18:32;;;;;;;0.40;0.30;;;8.10;99.90;;;;;;5039210;28;20459;-74
2022/02/02 21:20:58;;;;;;;0.40;0.20;;;8.00;99.90;;;;;;5033344;28;20391;-73
2022/02/02 21:28:30;;;;;;;0.40;0.30;;;8.00;99.90;;;;;;5037327;28;20385;-74
2022/02/02 21:30:56;;;;;;;0.40;0.30;;;7.80;99.90;;;;;;5037888;28;20384;-74
2022/02/02 21:33:22;;;;;;;0.50;0.50;;;7.70;99.90;;;;;;5041314;28;20392;-74
2022/02/02 21:35:50;;;;;;;0.40;0.30;;;7.70;99.90;;;;;;5035806;28;20774;-74
2022/02/02 21:38:52;;;;;;;0.40;0.30;;;7.60;99.90;;;;;;5039351;28;20435;-74
2022/02/02 21:41:03;;;;;;;1.90;0.80;;;7.60;99.90;;;;;;5035632;28;20406;-74
2022/02/02 21:43:30;;;;;;;0.40;0.20;;;7.60;99.90;;;;;;5037273;28;20444;-74
2022/02/02 21:45:56;;;;;;;0.60;0.60;;;7.60;99.90;;;;;;5040520;28;20399;-74
2022/02/02 21:48:26;;;;;;;2.90;0.70;;;7.50;99.90;;;;;;5041661;28;20452;-73
2022/02/02 21:51:01;;;;;;;0.40;0.20;;;7.50;99.90;;;;;;5044787;28;20419;-74
2022/02/02 21:53:27;;;;;;;0.40;0.20;;;7.50;99.90;;;;;;5035611;28;20399;-75
2022/02/02 21:55:52;;;;;;;0.40;0.30;;;7.50;99.90;;;;;;5040266;28;20429;-74
2022/02/02 21:58:18;;;;;;;0.40;0.40;;;7.50;99.90;;;;;;5040968;28;20518;-74
2022/02/02 22:00:44;;;;;;;0.40;0.30;;;7.50;99.90;;;;;;5044520;28;20396;-74
2022/02/02 22:03:11;;;;;;;0.40;0.20;;;7.40;99.90;;;;;;5042867;28;20449;-74
2022/02/02 22:05:38;;;;;;;0.40;0.25;;;7.40;99.90;;;;;;5043734;28;20468;-72
2022/02/02 22:08:08;;;;;;;0.40;0.20;;;7.40;99.90;;;;;;5036978;28;20388;-74
2022/02/02 22:10:35;;;;;;;0.40;0.40;;;7.50;99.90;;;;;;5036647;28;20391;-73
2022/02/02 22:13:00;;;;;;;0.40;0.30;;;7.40;99.90;;;;;;5042231;28;20391;-73
2022/02/02 22:15:31;;;;;;;0.40;0.30;;;7.40;99.90;;;;;;5041836;28;20917;-73
2022/02/02 22:17:56;;;;;;;0.40;0.20;;;7.30;99.90;;;;;;5035969;28;20426;-73
2022/02/02 22:20:22;;;;;;;1.40;0.90;;;7.30;99.90;;;;;;5044141;28;20895;-73
2022/02/02 22:22:49;;;;;;;0.40;0.20;;;7.30;99.90;;;;;;5041867;28;20512;-74
2022/02/02 22:25:20;;;;;;;0.40;0.20;;;7.40;99.90;;;;;;5042395;28;20937;-74
2022/02/02 22:27:46;;;;;;;0.40;0.30;;;7.40;99.90;;;;;;5036340;28;20538;-74
2022/02/02 22:30:12;;;;;;;0.50;0.50;;;7.40;99.90;;;;;;5030245;28;20471;-74
2022/02/02 22:32:38;;;;;;;1.05;1.05;;;7.30;99.90;;;;;;5034088;28;20391;-74
2022/02/02 22:35:05;;;;;;;0.40;0.20;;;7.30;99.90;;;;;;5032350;28;20383;-74
2022/02/02 22:37:31;;;;;;;0.40;0.20;;;7.30;99.90;;;;;;5033063;28;20907;-75
2022/02/02 22:39:57;;;;;;;0.40;0.20;;;7.20;99.90;;;;;;5032992;28;20383;-74
2022/02/02 22:42:25;;;;;;;0.40;0.20;;;7.20;99.90;;;;;;5033074;28;20391;-75
2022/02/02 22:44:54;;;;;;;0.40;0.20;;;7.30;99.90;;;;;;5033508;28;20732;-75
2022/02/02 22:47:21;;;;;;;0.40;0.20;;;7.20;99.90;;;;;;5032603;28;20505;-74
2022/02/02 22:49:50;;;;;;;0.40;0.20;;;7.20;99.90;;;;;;5033355;28;20743;-74
2022/02/02 22:52:17;;;;;;;0.40;0.20;;;7.20;99.90;;;;;;5014792;28;20393;-75
2022/02/02 22:54:43;;;;;;;0.40;0.30;;;7.20;99.90;;;;;;5013255;28;20389;-74
2022/02/02 22:57:08;;;;;;;0.60;0.50;;;7.30;99.90;;;;;;5012348;28;20873;-74
2022/02/02 22:59:37;;;;;;;0.40;0.30;;;7.20;99.90;;;;;;5013626;28;20389;-74
2022/02/02 23:04:47;;;;;;;0.40;0.30;;;7.30;99.90;;;;;;5013432;28;20459;-74
2022/02/02 23:07:13;;;;;;;0.40;0.20;;;7.20;99.90;;;;;;5012671;28;20421;-74
2022/02/02 23:09:40;;;;;;;0.40;0.20;;;7.30;99.90;;;;;;5013666;28;20392;-75
2022/02/02 23:12:06;;;;;;;0.40;0.20;;;7.30;99.90;;;;;;5012130;28;20441;-74
2022/02/02 23:14:36;;;;;;;0.40;0.20;;;7.20;99.90;;;;;;5011971;28;20541;-74
2022/02/02 23:17:03;;;;;;;0.50;0.50;;;7.20;99.90;;;;;;5012976;28;20413;-74
2022/02/02 23:19:31;;;;;;;0.40;0.30;;;7.10;99.90;;;;;;5012370;28;20396;-74
2022/02/02 23:22:00;;;;;;;0.50;0.40;;;7.10;99.90;;;;;;5013037;28;20804;-74
2022/02/02 23:24:28;;;;;;;0.40;0.30;;;7.20;99.90;;;;;;5012182;28;20479;-74
2022/02/02 23:26:56;;;;;;;0.40;0.20;;;7.20;99.90;;;;;;5012682;28;20463;-74
2022/02/02 23:29:22;;;;;;;0.40;0.20;;;7.20;99.90;;;;;;5011903;28;20865;-74
2022/02/02 23:31:48;;;;;;;0.40;0.20;;;7.30;99.90;;;;;;5012884;28;20381;-74
2022/02/02 23:34:14;;;;;;;0.40;0.20;;;7.30;99.90;;;;;;5013007;28;20723;-74
2022/02/02 23:36:40;;;;;;;0.40;0.28;;;7.40;99.90;;;;;;5011627;28;20428;-74
2022/02/02 23:39:07;;;;;;;0.40;0.20;;;7.80;99.90;;;;;;4995268;28;20745;-74
2022/02/02 23:44:00;;;;;;;0.40;0.20;;;8.10;99.90;;;;;;5012708;28;20377;-74
2022/02/02 23:46:30;;;;;;;0.40;0.20;;;8.10;99.90;;;;;;5012564;28;20381;-74
2022/02/02 23:49:06;;;;;;;0.40;0.20;;;8.00;99.90;;;;;;5011996;28;20942;-74
2022/02/02 23:51:35;;;;;;;0.40;0.20;;;8.00;99.90;;;;;;5011864;28;20814;-74
2022/02/02 23:54:04;;;;;;;0.40;0.20;;;8.00;99.90;;;;;;5012647;28;20419;-74
2022/02/02 23:56:49;;;;;;;0.40;0.28;;;8.30;99.90;;;;;;5011417;28;20388;-74
2022/02/02 23:59:24;;;;;;;0.40;0.20;;;8.40;99.90;;;;;;5012957;28;20398;-74
